createdAt,value
2022-09-02T00:00:12.174Z,0.50
2022-09-02T00:02:44.011Z,0.50
2022-09-02T00:05:12.600Z,0.50
2022-09-02T00:07:40.989Z,0.40
2022-09-02T00:10:09.883Z,0.47
2022-09-02T00:12:38.072Z,0.50
2022-09-02T00:15:09.649Z,0.60
2022-09-02T00:17:38.099Z,0.40
2022-09-02T00:20:14.163Z,0.40
2022-09-02T00:22:42.378Z,0.50
2022-09-02T00:25:10.806Z,0.30
2022-09-02T00:27:39.188Z,0.60
2022-09-02T00:30:08.712Z,0.50
2022-09-02T00:32:36.893Z,0.57
2022-09-02T00:35:05.824Z,0.60
2022-09-02T00:37:38.143Z,0.50
2022-09-02T00:40:08.048Z,0.40
2022-09-02T00:42:36.580Z,0.30
2022-09-02T00:45:06.982Z,0.50
2022-09-02T00:47:35.986Z,0.30
2022-09-02T00:50:07.295Z,0.40
2022-09-02T00:52:40.555Z,0.50
2022-09-02T00:55:15.277Z,0.57
2022-09-02T00:57:48.371Z,0.70
2022-09-02T01:00:21.228Z,0.50
2022-09-02T01:02:51.988Z,0.50
2022-09-02T01:05:24.214Z,0.30
2022-09-02T01:07:55.281Z,0.47
2022-09-02T01:10:29.045Z,0.63
2022-09-02T01:12:58.002Z,0.40
2022-09-02T01:15:26.877Z,0.47
2022-09-02T01:17:55.678Z,0.50
2022-09-02T01:20:26.398Z,0.63
2022-09-02T01:22:57.342Z,0.40
2022-09-02T01:25:28.441Z,0.53
2022-09-02T01:28:02.168Z,0.40
2022-09-02T01:30:31.945Z,0.50
2022-09-02T01:33:00.126Z,0.50
2022-09-02T01:35:29.684Z,0.40
2022-09-02T01:38:01.581Z,0.47
2022-09-02T01:40:32.074Z,0.40
2022-09-02T01:43:02.768Z,0.50
2022-09-02T01:45:33.548Z,0.70
2022-09-02T01:48:04.771Z,0.40
2022-09-02T01:50:33.829Z,0.50
2022-09-02T01:53:03.850Z,0.53
2022-09-02T01:55:36.228Z,0.47
2022-09-02T01:58:07.043Z,0.50
2022-09-02T02:00:35.514Z,0.40
2022-09-02T02:03:07.250Z,0.40
2022-09-02T02:05:38.110Z,0.60
2022-09-02T02:08:08.276Z,0.60
2022-09-02T02:10:36.956Z,0.60
2022-09-02T02:13:06.578Z,0.30
2022-09-02T02:15:38.777Z,0.50
2022-09-02T02:18:07.113Z,0.43
2022-09-02T02:20:35.395Z,0.73
2022-09-02T02:23:07.635Z,0.60
2022-09-02T02:25:39.639Z,0.50
2022-09-02T02:28:07.869Z,0.63
2022-09-02T02:30:36.471Z,0.50
2022-09-02T02:33:06.005Z,0.70
2022-09-02T02:35:34.223Z,0.40
2022-09-02T02:38:03.624Z,0.70
2022-09-02T02:40:36.192Z,0.40
2022-09-02T02:43:05.098Z,0.50
2022-09-02T02:45:35.699Z,0.43
2022-09-02T02:48:04.324Z,0.57
2022-09-02T02:50:35.095Z,0.63
2022-09-02T02:53:03.730Z,0.50
2022-09-02T02:55:37.099Z,0.50
2022-09-02T02:58:07.699Z,0.50
2022-09-02T03:00:41.178Z,0.60
2022-09-02T03:03:12.271Z,0.43
2022-09-02T03:05:43.051Z,0.43
2022-09-02T03:08:13.866Z,0.93
2022-09-02T03:10:44.173Z,0.60
2022-09-02T03:13:15.518Z,0.50
2022-09-02T03:15:45.876Z,0.60
2022-09-02T03:18:14.134Z,0.47
2022-09-02T03:20:43.647Z,0.80
2022-09-02T03:23:13.154Z,0.33
2022-09-02T03:25:47.440Z,0.60
2022-09-02T03:28:24.783Z,0.40
2022-09-02T03:30:53.433Z,0.50
2022-09-02T03:33:21.966Z,0.57
2022-09-02T03:35:50.217Z,0.47
2022-09-02T03:38:21.296Z,0.50
2022-09-02T03:40:51.074Z,0.83
2022-09-02T03:43:20.003Z,0.50
2022-09-02T03:45:51.093Z,0.70
2022-09-02T03:48:19.391Z,0.50
2022-09-02T03:50:48.271Z,0.70
2022-09-02T03:53:19.963Z,0.53
2022-09-02T03:55:55.157Z,0.60
2022-09-02T03:58:27.030Z,0.60
2022-09-02T04:00:57.538Z,0.60
2022-09-02T04:03:28.334Z,0.60
2022-09-02T04:05:56.789Z,0.60
2022-09-02T04:08:28.181Z,0.60
2022-09-02T04:11:07.023Z,0.50
2022-09-02T04:13:35.477Z,0.70
2022-09-02T04:20:20.616Z,0.53
2022-09-02T04:23:13.629Z,0.50
2022-09-02T04:25:44.997Z,0.77
2022-09-02T04:28:17.274Z,0.73
2022-09-02T04:30:45.618Z,0.80
2022-09-02T04:33:16.731Z,0.93
2022-09-02T04:35:49.462Z,0.60
2022-09-02T04:38:19.558Z,0.53
2022-09-02T04:40:49.375Z,0.53
2022-09-02T04:43:21.762Z,0.90
2022-09-02T04:45:53.243Z,0.50
2022-09-02T04:48:22.039Z,1.10
2022-09-02T04:50:52.721Z,1.00
2022-09-02T04:53:23.737Z,0.60
2022-09-02T04:55:57.807Z,0.80
2022-09-02T04:58:29.078Z,0.70
2022-09-02T05:00:57.350Z,0.70
2022-09-02T05:03:28.712Z,0.73
2022-09-02T05:06:01.931Z,0.97
2022-09-02T05:08:36.530Z,0.87
2022-09-02T05:11:07.099Z,0.80
2022-09-02T05:13:40.367Z,0.50
2022-09-02T05:16:09.195Z,0.70
2022-09-02T05:18:40.079Z,0.73
2022-09-02T05:21:08.768Z,0.80
2022-09-02T05:23:37.472Z,0.80
2022-09-02T05:26:05.953Z,0.90
2022-09-02T05:28:40.061Z,0.80
2022-09-02T05:31:12.808Z,0.67
2022-09-02T05:33:42.975Z,0.77
2022-09-02T05:36:14.859Z,0.67
2022-09-02T05:38:46.741Z,0.90
2022-09-02T05:41:19.825Z,0.93
2022-09-02T05:43:50.735Z,0.50
2022-09-02T05:46:23.672Z,0.70
2022-09-02T05:49:07.608Z,0.70
2022-09-02T05:51:58.674Z,1.10
2022-09-02T05:54:34.648Z,0.60
2022-09-02T05:57:09.099Z,0.90
2022-09-02T05:59:42.175Z,0.63
2022-09-02T06:02:15.000Z,0.80
2022-09-02T06:04:45.973Z,0.70
2022-09-02T06:07:19.595Z,0.80
2022-09-02T06:09:50.222Z,0.73
2022-09-02T06:12:24.325Z,0.93
2022-09-02T06:14:53.980Z,0.73
2022-09-02T06:17:23.492Z,0.77
2022-09-02T06:19:54.227Z,0.77
2022-09-02T06:22:26.579Z,0.80
2022-09-02T06:24:56.523Z,0.83
2022-09-02T06:27:27.974Z,0.80
2022-09-02T06:29:59.942Z,0.90
2022-09-02T06:32:28.611Z,1.10
2022-09-02T06:35:02.525Z,0.77
2022-09-02T06:37:34.748Z,0.70
2022-09-02T06:40:03.255Z,1.30
2022-09-02T06:42:32.830Z,1.33
2022-09-02T06:45:13.095Z,0.97
2022-09-02T06:47:46.032Z,0.97
2022-09-02T06:50:17.679Z,0.93
2022-09-02T06:52:48.210Z,1.10
2022-09-02T06:55:18.475Z,0.93
2022-09-02T06:57:47.121Z,0.97
2022-09-02T07:00:18.683Z,0.80
2022-09-02T07:03:06.884Z,0.90
2022-09-02T07:05:37.376Z,0.90
2022-09-02T07:08:06.724Z,1.00
2022-09-02T07:10:40.113Z,1.50
2022-09-02T07:13:11.419Z,0.93
2022-09-02T07:15:42.436Z,1.00
2022-09-02T07:18:11.534Z,1.10
2022-09-02T07:20:39.983Z,0.90
2022-09-02T07:23:08.242Z,1.03
2022-09-02T07:25:41.225Z,1.33
2022-09-02T07:28:12.362Z,0.97
2022-09-02T07:30:45.146Z,0.80
2022-09-02T07:33:16.987Z,0.90
2022-09-02T07:35:46.987Z,0.90
2022-09-02T07:38:17.832Z,0.90
2022-09-02T07:40:50.807Z,1.00
2022-09-02T07:43:26.346Z,1.20
2022-09-02T07:45:57.003Z,0.90
2022-09-02T07:48:26.328Z,1.20
2022-09-02T07:50:54.747Z,1.00
2022-09-02T07:53:24.292Z,1.30
2022-09-02T07:55:52.628Z,0.90
2022-09-02T07:58:24.084Z,0.90
2022-09-02T08:00:56.010Z,1.20
2022-09-02T08:03:26.952Z,0.80
2022-09-02T08:05:58.931Z,1.33
2022-09-02T08:08:27.575Z,0.73
2022-09-02T08:10:57.125Z,1.10
2022-09-02T08:13:27.053Z,1.00
2022-09-02T08:15:56.288Z,1.00
2022-09-02T08:18:27.819Z,0.80
2022-09-02T08:20:56.268Z,0.90
2022-09-02T08:23:40.295Z,1.00
2022-09-02T08:26:10.001Z,1.00
2022-09-02T08:28:39.352Z,1.07
2022-09-02T08:31:08.259Z,0.70
2022-09-02T08:33:38.223Z,0.90
2022-09-02T08:36:08.434Z,1.00
2022-09-02T08:38:37.059Z,1.00
2022-09-02T08:41:13.815Z,1.07
2022-09-02T08:43:46.804Z,0.93
2022-09-02T08:46:18.197Z,1.20
2022-09-02T08:48:52.972Z,0.80
2022-09-02T08:51:32.122Z,0.97
2022-09-02T08:54:12.277Z,1.07
2022-09-02T08:56:42.152Z,0.90
2022-09-02T08:59:14.239Z,0.90
2022-09-02T09:01:47.314Z,1.50
2022-09-02T09:04:27.279Z,0.73
2022-09-02T09:07:21.190Z,0.80
2022-09-02T09:10:10.846Z,0.97
2022-09-02T09:12:56.754Z,1.30
2022-09-02T09:15:35.016Z,1.00
2022-09-02T09:18:06.510Z,1.20
2022-09-02T09:20:39.195Z,1.00
2022-09-02T09:23:22.016Z,0.90
2022-09-02T09:25:53.377Z,1.00
2022-09-02T09:28:21.633Z,1.00
2022-09-02T09:30:49.957Z,1.00
2022-09-02T09:33:22.388Z,0.97
2022-09-02T09:35:54.377Z,1.10
2022-09-02T09:38:31.472Z,1.23
2022-09-02T09:41:19.259Z,1.17
2022-09-02T09:43:47.728Z,1.05
2022-09-02T09:46:29.645Z,1.15
2022-09-02T09:48:58.161Z,1.23
2022-09-02T09:51:27.896Z,0.93
2022-09-02T09:54:16.228Z,1.35
2022-09-02T09:56:46.874Z,0.80
2022-09-02T09:59:37.154Z,1.40
2022-09-02T10:02:05.629Z,1.00
2022-09-02T10:04:43.617Z,1.08
2022-09-02T10:07:16.032Z,1.17
2022-09-02T10:09:44.326Z,1.33
2022-09-02T10:12:13.757Z,1.23
2022-09-02T10:14:45.471Z,1.15
2022-09-02T10:17:26.009Z,1.13
2022-09-02T10:19:58.010Z,1.05
2022-09-02T10:22:59.703Z,1.30
2022-09-02T10:25:39.262Z,1.20
2022-09-02T10:28:22.960Z,1.10
2022-09-02T10:31:01.968Z,1.05
2022-09-02T10:33:39.110Z,1.15
2022-09-02T10:36:22.056Z,1.60
2022-09-02T10:38:54.543Z,1.40
2022-09-02T10:41:50.507Z,1.52
2022-09-02T10:44:28.326Z,1.27
2022-09-02T10:47:02.397Z,1.25
2022-09-02T10:50:02.048Z,1.52
2022-09-02T10:52:51.239Z,1.40
2022-09-02T10:55:31.661Z,1.25
2022-09-02T10:58:06.343Z,1.33
2022-09-02T11:00:36.763Z,1.10
2022-09-02T11:03:11.837Z,1.02
2022-09-02T11:05:45.083Z,1.50
2022-09-02T11:08:17.678Z,1.02
2022-09-02T11:10:57.667Z,1.30
2022-09-02T11:13:36.861Z,1.08
2022-09-02T11:16:12.970Z,1.40
2022-09-02T11:18:47.930Z,1.10
2022-09-02T11:21:35.425Z,1.10
2022-09-02T11:24:11.583Z,1.25
2022-09-02T11:26:47.491Z,1.30
2022-09-02T11:29:20.662Z,1.40
2022-09-02T11:32:01.851Z,1.10
2022-09-02T11:34:39.684Z,1.40
2022-09-02T11:37:13.188Z,1.27
2022-09-02T11:40:06.674Z,0.93
2022-09-02T11:43:02.546Z,1.73
2022-09-02T11:46:23.737Z,2.63
2022-09-02T11:49:29.583Z,1.30
2022-09-02T11:52:11.733Z,1.25
2022-09-02T11:54:43.782Z,1.10
2022-09-02T11:57:14.637Z,1.00
2022-09-02T12:00:08.554Z,1.02
2022-09-02T12:02:50.239Z,0.85
2022-09-02T12:05:47.835Z,1.00
2022-09-02T12:08:50.645Z,1.05
2022-09-02T12:11:49.876Z,1.00
2022-09-02T12:15:06.318Z,1.10
2022-09-02T12:17:41.505Z,1.15
2022-09-02T12:20:13.046Z,1.20
2022-09-02T12:22:42.544Z,1.10
2022-09-02T12:25:40.430Z,1.13
2022-09-02T12:28:25.802Z,1.20
2022-09-02T12:31:14.958Z,1.00
2022-09-02T12:33:46.197Z,1.27
2022-09-02T12:36:48.530Z,1.10
2022-09-02T12:40:03.132Z,1.30
2022-09-02T12:42:34.500Z,1.00
2022-09-02T12:45:11.034Z,1.27
2022-09-02T12:47:54.439Z,1.00
2022-09-02T12:50:28.382Z,1.25
2022-09-02T12:53:23.034Z,0.80
2022-09-02T12:55:59.707Z,1.05
2022-09-02T12:58:33.963Z,1.00
2022-09-02T13:01:14.745Z,1.00
2022-09-02T13:04:11.407Z,1.40
2022-09-02T13:07:08.555Z,1.23
2022-09-02T13:10:04.618Z,0.90
2022-09-02T13:13:18.062Z,1.30
2022-09-02T13:16:18.412Z,1.10
2022-09-02T13:19:20.266Z,0.90
2022-09-02T13:22:23.998Z,1.15
2022-09-02T13:25:43.917Z,0.93
2022-09-02T13:28:52.345Z,1.00
2022-09-02T13:31:25.815Z,1.00
2022-09-02T13:34:00.500Z,0.75
2022-09-02T13:36:35.639Z,1.00
2022-09-02T13:39:18.114Z,0.93
2022-09-02T13:41:49.387Z,0.88
2022-09-02T13:44:23.198Z,1.33
2022-09-02T13:46:54.410Z,0.93
2022-09-02T13:49:26.402Z,1.00
2022-09-02T13:51:56.663Z,0.95
2022-09-02T13:54:38.723Z,0.80
2022-09-02T13:57:10.877Z,1.08
2022-09-02T13:59:41.307Z,0.90
2022-09-02T14:02:25.103Z,1.02
2022-09-02T14:04:57.808Z,1.00
2022-09-02T14:07:32.412Z,0.90
2022-09-02T14:10:08.621Z,0.80
2022-09-02T14:12:40.695Z,1.10
2022-09-02T14:15:12.489Z,0.90
2022-09-02T14:17:43.184Z,1.10
2022-09-02T14:20:21.662Z,1.00
2022-09-02T14:22:57.298Z,1.02
2022-09-02T14:25:28.775Z,1.10
2022-09-02T14:28:02.107Z,1.00
2022-09-02T14:30:35.244Z,1.05
2022-09-02T14:33:26.829Z,1.08
2022-09-02T14:35:59.959Z,1.13
2022-09-02T14:38:29.945Z,1.00
2022-09-02T14:41:11.236Z,1.10
2022-09-02T14:43:45.618Z,1.00
2022-09-02T14:46:27.051Z,1.10
2022-09-02T14:49:02.689Z,1.00
2022-09-02T14:51:39.415Z,1.40
2022-09-02T14:54:08.564Z,1.02
2022-09-02T14:56:52.206Z,0.95
2022-09-02T14:59:21.434Z,1.02
2022-09-02T15:01:51.964Z,0.85
2022-09-02T15:04:20.634Z,1.02
2022-09-02T15:06:49.466Z,1.10
2022-09-02T15:09:20.102Z,1.08
2022-09-02T15:11:54.194Z,1.00
2022-09-02T15:14:22.393Z,1.10
2022-09-02T15:16:50.585Z,0.75
2022-09-02T15:19:19.044Z,1.13
2022-09-02T15:21:49.613Z,1.10
2022-09-02T15:24:18.082Z,0.93
2022-09-02T15:26:46.314Z,0.90
2022-09-02T15:29:16.017Z,1.17
2022-09-02T15:31:47.310Z,1.25
2022-09-02T15:34:15.564Z,0.90
2022-09-02T15:36:46.377Z,1.38
2022-09-02T15:39:15.536Z,1.10
2022-09-02T15:41:46.573Z,0.90
2022-09-02T15:44:19.354Z,1.10
2022-09-02T15:46:47.747Z,1.05
2022-09-02T15:49:18.384Z,1.30
2022-09-02T15:51:50.098Z,0.95
2022-09-02T15:54:23.114Z,1.00
2022-09-02T15:56:56.517Z,1.15
2022-09-02T15:59:28.715Z,0.98
2022-09-02T16:01:59.322Z,0.90
2022-09-02T16:04:29.364Z,1.10
2022-09-02T16:06:58.422Z,0.93
2022-09-02T16:09:30.324Z,0.90
2022-09-02T16:11:58.598Z,0.80
2022-09-02T16:14:30.889Z,1.00
2022-09-02T16:16:59.143Z,1.20
2022-09-02T16:19:30.210Z,1.10
2022-09-02T16:21:59.091Z,0.95
2022-09-02T16:24:27.361Z,1.52
2022-09-02T16:26:55.564Z,1.08
2022-09-02T16:29:26.957Z,1.00
2022-09-02T16:32:28.047Z,1.00
2022-09-02T16:34:46.854Z,1.10
2022-09-02T16:37:15.066Z,0.90
2022-09-02T16:39:45.912Z,0.90
2022-09-02T16:42:16.302Z,1.00
2022-09-02T16:44:46.017Z,1.23
2022-09-02T16:47:23.824Z,0.90
2022-09-02T16:49:52.056Z,1.00
2022-09-02T16:52:20.245Z,0.75
2022-09-02T16:54:48.910Z,0.80
2022-09-02T16:57:19.110Z,0.90
2022-09-02T16:59:50.071Z,1.10
2022-09-02T17:02:21.352Z,1.02
2022-09-02T17:04:51.296Z,1.23
2022-09-02T17:07:24.009Z,0.90
2022-09-02T17:09:52.309Z,0.90
2022-09-02T17:12:20.699Z,1.08
2022-09-02T17:14:48.886Z,1.10
2022-09-02T17:17:17.264Z,1.20
2022-09-02T17:19:45.538Z,0.90
2022-09-02T17:22:17.456Z,1.30
2022-09-02T17:24:53.040Z,1.35
2022-09-02T17:27:24.227Z,1.20
2022-09-02T17:29:52.478Z,1.35
2022-09-02T17:32:21.140Z,1.20
2022-09-02T17:34:50.784Z,0.90
2022-09-02T17:37:21.280Z,0.90
2022-09-02T17:39:49.731Z,1.67
2022-09-02T17:42:17.208Z,1.10
2022-09-02T17:44:45.464Z,0.90
2022-09-02T17:47:20.111Z,1.00
2022-09-02T17:49:49.391Z,1.05
2022-09-02T17:52:21.790Z,0.88
2022-09-02T17:54:51.303Z,0.77
2022-09-02T17:57:41.805Z,1.00
2022-09-02T18:00:13.760Z,0.98
2022-09-02T18:03:17.014Z,1.17
2022-09-02T18:06:16.264Z,1.00
2022-09-02T18:08:53.074Z,1.30
2022-09-02T18:11:23.138Z,1.20
2022-09-02T18:13:57.373Z,1.00
2022-09-02T18:16:32.310Z,1.15
2022-09-02T18:19:14.100Z,1.30
2022-09-02T18:22:06.370Z,1.70
2022-09-02T18:24:51.200Z,1.20
2022-09-02T18:27:26.386Z,1.20
2022-09-02T18:30:04.238Z,1.00
2022-09-02T18:32:59.637Z,1.05
2022-09-02T18:35:36.866Z,1.10
2022-09-02T18:38:15.699Z,1.00
2022-09-02T18:40:52.397Z,1.40
2022-09-02T18:43:27.291Z,0.90
2022-09-02T18:46:01.186Z,1.00
2022-09-02T18:48:35.601Z,0.90
2022-09-02T18:51:10.042Z,1.10
2022-09-02T18:53:42.084Z,1.05
2022-09-02T18:56:14.333Z,1.02
2022-09-02T18:58:47.950Z,0.73
2022-09-02T19:01:23.165Z,0.90
2022-09-02T19:03:51.869Z,0.88
2022-09-02T19:06:25.511Z,1.00
2022-09-02T19:08:58.309Z,1.20
2022-09-02T19:11:28.812Z,1.00
2022-09-02T19:14:00.897Z,1.00
2022-09-02T19:16:30.666Z,1.23
2022-09-02T19:18:58.906Z,0.90
2022-09-02T19:21:33.657Z,0.98
2022-09-02T19:24:03.185Z,0.90
2022-09-02T19:26:33.570Z,0.95
2022-09-02T19:29:04.943Z,0.90
2022-09-02T19:31:33.651Z,0.90
2022-09-02T19:34:04.452Z,1.00
2022-09-02T19:36:34.283Z,0.95
2022-09-02T19:39:02.476Z,1.00
2022-09-02T19:41:35.041Z,0.95
2022-09-02T19:44:03.282Z,1.07
2022-09-02T19:49:19.786Z,0.80
2022-09-02T19:51:48.643Z,0.80
2022-09-02T19:54:17.859Z,0.90
2022-09-02T19:56:47.529Z,0.80
2022-09-02T19:59:15.846Z,1.10
2022-09-02T20:01:44.276Z,1.20
2022-09-02T20:04:12.686Z,1.08
2022-09-02T20:06:40.927Z,0.90
2022-09-02T20:09:09.227Z,1.00
2022-09-02T20:11:38.664Z,0.90
2022-09-02T20:14:10.789Z,0.85
2022-09-02T20:16:39.173Z,1.40
2022-09-02T20:19:07.827Z,0.90
2022-09-02T20:21:49.359Z,1.08
2022-09-02T20:24:25.229Z,1.00
2022-09-02T20:27:01.536Z,1.00
2022-09-02T20:29:52.407Z,1.07
2022-09-02T20:32:36.493Z,0.97
2022-09-02T20:35:25.479Z,0.90
2022-09-02T20:38:02.994Z,0.90
2022-09-02T20:40:45.904Z,1.00
2022-09-02T20:43:50.009Z,1.00
2022-09-02T20:46:35.541Z,0.80
2022-09-02T20:49:18.336Z,1.20
2022-09-02T20:51:55.234Z,1.30
2022-09-02T20:54:37.549Z,0.90
2022-09-02T20:57:26.074Z,1.07
2022-09-02T21:00:05.477Z,1.10
2022-09-02T21:02:45.666Z,1.33
2022-09-02T21:05:22.194Z,0.90
2022-09-02T21:07:58.752Z,1.20
2022-09-02T21:10:32.621Z,1.00
2022-09-02T21:13:12.527Z,0.97
2022-09-02T21:18:47.460Z,0.90
2022-09-02T21:21:23.018Z,1.10
2022-09-02T21:23:56.469Z,1.20
2022-09-02T21:26:37.161Z,0.90
2022-09-02T21:29:14.429Z,0.90
2022-09-02T21:31:50.063Z,0.90
2022-09-02T21:34:24.843Z,1.10
2022-09-02T21:36:56.323Z,0.70
2022-09-02T21:39:28.231Z,1.00
2022-09-02T21:42:12.038Z,0.90
2022-09-02T21:44:56.225Z,0.93
2022-09-02T21:47:30.377Z,1.00
2022-09-02T21:50:09.674Z,0.80
2022-09-02T21:53:00.015Z,0.90
2022-09-02T21:55:44.599Z,0.80
2022-09-02T21:58:47.198Z,0.93
2022-09-02T22:01:21.656Z,1.03
2022-09-02T22:03:54.904Z,1.17
2022-09-02T22:06:34.201Z,0.87
2022-09-02T22:09:09.202Z,0.80
2022-09-02T22:11:41.165Z,0.83
2022-09-02T22:14:15.358Z,0.83
2022-09-02T22:16:53.720Z,0.90
2022-09-02T22:19:30.228Z,0.57
2022-09-02T22:22:09.845Z,0.80
2022-09-02T22:24:40.548Z,0.80
2022-09-02T22:27:15.091Z,0.80
2022-09-02T22:29:47.408Z,0.87
2022-09-02T22:32:21.542Z,1.20
2022-09-02T22:34:58.132Z,1.00
2022-09-02T22:37:39.279Z,0.90
2022-09-02T22:40:11.582Z,0.73
2022-09-02T22:42:41.664Z,1.10
2022-09-02T22:45:31.658Z,0.87
2022-09-02T22:48:24.404Z,0.70
2022-09-02T22:51:18.958Z,0.70
2022-09-02T22:53:50.632Z,1.00
2022-09-02T22:56:26.070Z,0.70
2022-09-02T22:59:24.244Z,0.70
2022-09-02T23:02:05.667Z,0.80
2022-09-02T23:04:49.594Z,1.00
2022-09-02T23:07:17.884Z,0.77
2022-09-02T23:09:53.020Z,0.63
2022-09-02T23:12:32.074Z,1.00
2022-09-02T23:15:13.008Z,1.20
2022-09-02T23:17:48.963Z,0.77
2022-09-02T23:20:28.494Z,0.90
2022-09-02T23:23:11.099Z,0.70
2022-09-02T23:26:10.589Z,0.80
2022-09-02T23:28:56.127Z,0.80
2022-09-02T23:31:34.353Z,0.80
2022-09-02T23:34:17.949Z,0.70
2022-09-02T23:36:52.267Z,0.90
2022-09-02T23:39:43.689Z,0.73
2022-09-02T23:42:16.337Z,0.47
2022-09-02T23:44:48.050Z,0.60
2022-09-02T23:47:37.438Z,0.90
2022-09-02T23:50:18.005Z,0.90
2022-09-02T23:52:56.588Z,0.80
2022-09-02T23:55:39.046Z,0.80
2022-09-02T23:58:23.334Z,0.67
